createdAt,value
2023-03-21T00:11:02.731Z,980.05
2023-03-21T00:23:04.905Z,980.03
2023-03-21T00:35:29.665Z,979.90
2023-03-21T00:47:07.536Z,979.85
2023-03-21T00:59:04.609Z,979.70
2023-03-21T01:11:05.027Z,979.58
2023-03-21T01:23:09.747Z,979.47
2023-03-21T01:35:05.971Z,979.54
2023-03-21T01:47:11.833Z,979.55
2023-03-21T01:59:09.496Z,979.32
2023-03-21T02:11:07.287Z,979.41
2023-03-21T02:23:07.731Z,979.24
2023-03-21T02:35:08.189Z,979.24
2023-03-21T02:47:08.748Z,979.26
2023-03-21T02:59:11.370Z,979.26
2023-03-21T03:11:09.566Z,979.34
2023-03-21T03:23:10.011Z,979.28
2023-03-21T03:35:10.406Z,979.27
2023-03-21T03:47:22.939Z,979.16
2023-03-21T03:59:14.066Z,979.17
2023-03-21T04:11:14.007Z,979.16
2023-03-21T04:23:12.264Z,979.22
2023-03-21T04:35:12.702Z,979.22
2023-03-21T04:47:13.193Z,979.31
2023-03-21T04:59:15.848Z,979.28
2023-03-21T05:11:14.066Z,979.42
2023-03-21T05:23:14.509Z,979.49
2023-03-21T05:35:15.004Z,979.60
2023-03-21T05:47:15.411Z,979.69
2023-03-21T05:59:15.881Z,979.68
2023-03-21T06:11:16.373Z,979.81
2023-03-21T06:23:16.806Z,979.81
2023-03-21T06:35:17.229Z,979.78
2023-03-21T06:47:17.692Z,979.84
2023-03-21T06:59:18.126Z,979.77
2023-03-21T07:11:18.621Z,979.76
2023-03-21T07:23:19.086Z,979.72
2023-03-21T07:35:19.506Z,979.67
2023-03-21T07:47:19.954Z,979.67
2023-03-21T07:59:20.434Z,979.69
2023-03-21T08:11:20.842Z,979.72
2023-03-21T08:23:21.306Z,979.60
2023-03-21T08:35:21.757Z,979.51
2023-03-21T08:47:22.230Z,979.41
2023-03-21T08:59:22.664Z,979.39
